sensor_id;sensor_type;location;lat;lon;timestamp;P1;durP1;ratioP1;P2;durP2;ratioP2
12129;SDS011;6128;59.340;18.040;2023-05-07T00:00:42;1.70;;;1.60;;
12129;SDS011;6128;59.340;18.040;2023-05-07T00:03:09;2.03;;;1.80;;
12129;SDS011;6128;59.340;18.040;2023-05-07T00:05:37;1.97;;;1.67;;
12129;SDS011;6128;59.340;18.040;2023-05-07T00:08:05;3.60;;;2.07;;
12129;SDS011;6128;59.340;18.040;2023-05-07T00:10:32;1.50;;;1.40;;
12129;SDS011;6128;59.340;18.040;2023-05-07T00:12:59;2.27;;;1.60;;
12129;SDS011;6128;59.340;18.040;2023-05-07T00:15:26;2.73;;;1.40;;
12129;SDS011;6128;59.340;18.040;2023-05-07T00:17:53;4.07;;;1.60;;
12129;SDS011;6128;59.340;18.040;2023-05-07T00:20:20;1.60;;;1.43;;
12129;SDS011;6128;59.340;18.040;2023-05-07T00:22:48;2.23;;;1.67;;
12129;SDS011;6128;59.340;18.040;2023-05-07T00:25:16;1.50;;;1.40;;
12129;SDS011;6128;59.340;18.040;2023-05-07T00:27:44;2.63;;;1.60;;
12129;SDS011;6128;59.340;18.040;2023-05-07T00:30:11;1.70;;;1.50;;
12129;SDS011;6128;59.340;18.040;2023-05-07T00:32:39;1.70;;;1.60;;
12129;SDS011;6128;59.340;18.040;2023-05-07T00:35:07;4.33;;;1.53;;
12129;SDS011;6128;59.340;18.040;2023-05-07T00:37:34;2.13;;;1.90;;
12129;SDS011;6128;59.340;18.040;2023-05-07T00:40:03;4.07;;;1.60;;
12129;SDS011;6128;59.340;18.040;2023-05-07T00:42:32;1.60;;;1.50;;
12129;SDS011;6128;59.340;18.040;2023-05-07T00:44:59;4.17;;;2.00;;
12129;SDS011;6128;59.340;18.040;2023-05-07T00:47:26;1.93;;;1.67;;
12129;SDS011;6128;59.340;18.040;2023-05-07T00:49:54;2.97;;;2.00;;
12129;SDS011;6128;59.340;18.040;2023-05-07T00:52:21;2.43;;;1.70;;
12129;SDS011;6128;59.340;18.040;2023-05-07T00:54:50;2.30;;;2.00;;
12129;SDS011;6128;59.340;18.040;2023-05-07T00:57:19;3.40;;;2.00;;
12129;SDS011;6128;59.340;18.040;2023-05-07T00:59:48;3.90;;;1.60;;
12129;SDS011;6128;59.340;18.040;2023-05-07T01:02:15;2.43;;;1.93;;
12129;SDS011;6128;59.340;18.040;2023-05-07T01:04:43;2.00;;;1.80;;
12129;SDS011;6128;59.340;18.040;2023-05-07T01:07:10;2.13;;;1.90;;
12129;SDS011;6128;59.340;18.040;2023-05-07T01:09:37;4.20;;;1.80;;
12129;SDS011;6128;59.340;18.040;2023-05-07T01:12:06;2.00;;;1.80;;
12129;SDS011;6128;59.340;18.040;2023-05-07T01:14:35;4.23;;;1.80;;
12129;SDS011;6128;59.340;18.040;2023-05-07T01:17:02;2.90;;;1.80;;
12129;SDS011;6128;59.340;18.040;2023-05-07T01:19:30;3.10;;;1.80;;
12129;SDS011;6128;59.340;18.040;2023-05-07T01:22:00;2.40;;;1.60;;
12129;SDS011;6128;59.340;18.040;2023-05-07T01:24:31;6.23;;;1.80;;
12129;SDS011;6128;59.340;18.040;2023-05-07T01:26:59;2.57;;;1.70;;
12129;SDS011;6128;59.340;18.040;2023-05-07T01:29:27;2.73;;;1.70;;
12129;SDS011;6128;59.340;18.040;2023-05-07T01:31:55;1.90;;;1.63;;
12129;SDS011;6128;59.340;18.040;2023-05-07T01:34:24;1.57;;;1.43;;
12129;SDS011;6128;59.340;18.040;2023-05-07T01:36:53;1.83;;;1.60;;
12129;SDS011;6128;59.340;18.040;2023-05-07T01:39:23;1.33;;;1.23;;
12129;SDS011;6128;59.340;18.040;2023-05-07T01:41:53;2.93;;;1.60;;
12129;SDS011;6128;59.340;18.040;2023-05-07T01:44:22;2.17;;;1.60;;
12129;SDS011;6128;59.340;18.040;2023-05-07T01:46:50;1.77;;;1.53;;
12129;SDS011;6128;59.340;18.040;2023-05-07T01:49:17;2.90;;;1.87;;
12129;SDS011;6128;59.340;18.040;2023-05-07T01:51:44;2.53;;;1.87;;
12129;SDS011;6128;59.340;18.040;2023-05-07T01:54:12;2.77;;;1.80;;
12129;SDS011;6128;59.340;18.040;2023-05-07T01:56:39;2.67;;;1.37;;
12129;SDS011;6128;59.340;18.040;2023-05-07T01:59:08;1.63;;;1.53;;
12129;SDS011;6128;59.340;18.040;2023-05-07T02:01:35;1.87;;;1.60;;
12129;SDS011;6128;59.340;18.040;2023-05-07T02:04:02;1.63;;;1.30;;
12129;SDS011;6128;59.340;18.040;2023-05-07T02:06:30;2.10;;;1.60;;
12129;SDS011;6128;59.340;18.040;2023-05-07T02:08:57;2.37;;;1.53;;
12129;SDS011;6128;59.340;18.040;2023-05-07T02:11:24;2.73;;;1.53;;
12129;SDS011;6128;59.340;18.040;2023-05-07T02:13:51;1.50;;;1.40;;
12129;SDS011;6128;59.340;18.040;2023-05-07T02:16:20;1.67;;;1.57;;
12129;SDS011;6128;59.340;18.040;2023-05-07T02:18:48;1.70;;;1.60;;
12129;SDS011;6128;59.340;18.040;2023-05-07T02:21:15;3.93;;;1.60;;
12129;SDS011;6128;59.340;18.040;2023-05-07T02:23:42;1.60;;;1.50;;
12129;SDS011;6128;59.340;18.040;2023-05-07T02:26:10;2.13;;;1.60;;
12129;SDS011;6128;59.340;18.040;2023-05-07T02:28:37;1.77;;;1.60;;
12129;SDS011;6128;59.340;18.040;2023-05-07T02:31:04;1.87;;;1.50;;
12129;SDS011;6128;59.340;18.040;2023-05-07T02:33:33;1.57;;;1.47;;
12129;SDS011;6128;59.340;18.040;2023-05-07T02:36:05;2.50;;;1.73;;
12129;SDS011;6128;59.340;18.040;2023-05-07T02:38:33;2.20;;;1.60;;
12129;SDS011;6128;59.340;18.040;2023-05-07T02:41:00;2.33;;;1.77;;
12129;SDS011;6128;59.340;18.040;2023-05-07T02:43:27;4.33;;;2.00;;
12129;SDS011;6128;59.340;18.040;2023-05-07T02:46:01;2.10;;;1.90;;
12129;SDS011;6128;59.340;18.040;2023-05-07T02:48:28;1.93;;;1.60;;
12129;SDS011;6128;59.340;18.040;2023-05-07T02:50:57;3.00;;;1.37;;
12129;SDS011;6128;59.340;18.040;2023-05-07T02:53:24;1.87;;;1.70;;
12129;SDS011;6128;59.340;18.040;2023-05-07T02:55:52;3.23;;;1.60;;
12129;SDS011;6128;59.340;18.040;2023-05-07T02:58:19;1.73;;;1.63;;
12129;SDS011;6128;59.340;18.040;2023-05-07T03:00:46;1.60;;;1.50;;
12129;SDS011;6128;59.340;18.040;2023-05-07T03:03:13;2.23;;;1.73;;
12129;SDS011;6128;59.340;18.040;2023-05-07T03:05:41;2.17;;;2.07;;
12129;SDS011;6128;59.340;18.040;2023-05-07T03:08:09;1.83;;;1.73;;
12129;SDS011;6128;59.340;18.040;2023-05-07T03:10:37;1.97;;;1.87;;
12129;SDS011;6128;59.340;18.040;2023-05-07T03:13:04;2.13;;;1.60;;
12129;SDS011;6128;59.340;18.040;2023-05-07T03:15:31;3.37;;;1.97;;
12129;SDS011;6128;59.340;18.040;2023-05-07T03:17:58;3.27;;;1.80;;
12129;SDS011;6128;59.340;18.040;2023-05-07T03:20:25;1.10;;;1.10;;
12129;SDS011;6128;59.340;18.040;2023-05-07T03:22:52;1.77;;;1.50;;
12129;SDS011;6128;59.340;18.040;2023-05-07T03:25:21;1.90;;;1.70;;
12129;SDS011;6128;59.340;18.040;2023-05-07T03:27:48;1.83;;;1.33;;
12129;SDS011;6128;59.340;18.040;2023-05-07T03:30:15;1.47;;;1.37;;
12129;SDS011;6128;59.340;18.040;2023-05-07T03:32:42;1.63;;;1.50;;
12129;SDS011;6128;59.340;18.040;2023-05-07T03:35:09;1.93;;;1.83;;
12129;SDS011;6128;59.340;18.040;2023-05-07T03:37:37;2.23;;;1.43;;
12129;SDS011;6128;59.340;18.040;2023-05-07T03:40:05;1.43;;;1.30;;
12129;SDS011;6128;59.340;18.040;2023-05-07T03:42:34;1.70;;;1.57;;
12129;SDS011;6128;59.340;18.040;2023-05-07T03:45:01;2.13;;;1.60;;
12129;SDS011;6128;59.340;18.040;2023-05-07T03:47:29;1.60;;;1.50;;
12129;SDS011;6128;59.340;18.040;2023-05-07T03:49:56;2.97;;;1.80;;
12129;SDS011;6128;59.340;18.040;2023-05-07T03:52:23;2.70;;;1.70;;
12129;SDS011;6128;59.340;18.040;2023-05-07T03:54:51;2.60;;;1.60;;
12129;SDS011;6128;59.340;18.040;2023-05-07T03:57:18;1.63;;;1.53;;
12129;SDS011;6128;59.340;18.040;2023-05-07T03:59:47;2.43;;;1.73;;
12129;SDS011;6128;59.340;18.040;2023-05-07T04:02:14;2.13;;;1.70;;
12129;SDS011;6128;59.340;18.040;2023-05-07T04:04:41;2.87;;;1.80;;
12129;SDS011;6128;59.340;18.040;2023-05-07T04:07:08;2.97;;;1.83;;
12129;SDS011;6128;59.340;18.040;2023-05-07T04:09:35;2.40;;;2.20;;
12129;SDS011;6128;59.340;18.040;2023-05-07T04:12:02;1.93;;;1.77;;
12129;SDS011;6128;59.340;18.040;2023-05-07T04:14:30;3.57;;;2.07;;
12129;SDS011;6128;59.340;18.040;2023-05-07T04:16:59;3.00;;;1.70;;
12129;SDS011;6128;59.340;18.040;2023-05-07T04:19:27;2.33;;;1.73;;
12129;SDS011;6128;59.340;18.040;2023-05-07T04:21:55;2.43;;;1.43;;
12129;SDS011;6128;59.340;18.040;2023-05-07T04:24:22;1.77;;;1.67;;
12129;SDS011;6128;59.340;18.040;2023-05-07T04:26:49;1.80;;;1.70;;
12129;SDS011;6128;59.340;18.040;2023-05-07T04:29:16;1.73;;;1.63;;
12129;SDS011;6128;59.340;18.040;2023-05-07T04:31:43;2.40;;;1.67;;
12129;SDS011;6128;59.340;18.040;2023-05-07T04:34:12;2.80;;;1.90;;
12129;SDS011;6128;59.340;18.040;2023-05-07T04:36:39;1.73;;;1.60;;
12129;SDS011;6128;59.340;18.040;2023-05-07T04:39:06;2.50;;;1.60;;
12129;SDS011;6128;59.340;18.040;2023-05-07T04:41:35;1.50;;;1.40;;
12129;SDS011;6128;59.340;18.040;2023-05-07T04:44:02;2.73;;;1.50;;
12129;SDS011;6128;59.340;18.040;2023-05-07T04:46:31;1.57;;;1.47;;
12129;SDS011;6128;59.340;18.040;2023-05-07T04:48:58;2.30;;;1.83;;
12129;SDS011;6128;59.340;18.040;2023-05-07T04:51:26;1.77;;;1.67;;
12129;SDS011;6128;59.340;18.040;2023-05-07T04:53:53;1.70;;;1.60;;
12129;SDS011;6128;59.340;18.040;2023-05-07T04:56:20;1.83;;;1.37;;
12129;SDS011;6128;59.340;18.040;2023-05-07T04:58:48;2.23;;;1.47;;
12129;SDS011;6128;59.340;18.040;2023-05-07T05:01:15;1.60;;;1.50;;
12129;SDS011;6128;59.340;18.040;2023-05-07T05:03:42;1.47;;;1.37;;
12129;SDS011;6128;59.340;18.040;2023-05-07T05:06:09;2.83;;;1.90;;
12129;SDS011;6128;59.340;18.040;2023-05-07T05:08:38;1.87;;;1.60;;
12129;SDS011;6128;59.340;18.040;2023-05-07T05:11:05;2.07;;;1.87;;
12129;SDS011;6128;59.340;18.040;2023-05-07T05:13:32;1.13;;;1.10;;
12129;SDS011;6128;59.340;18.040;2023-05-07T05:15:59;1.40;;;1.30;;
12129;SDS011;6128;59.340;18.040;2023-05-07T05:18:26;1.67;;;1.27;;
12129;SDS011;6128;59.340;18.040;2023-05-07T05:20:53;1.70;;;1.60;;
12129;SDS011;6128;59.340;18.040;2023-05-07T05:23:20;1.37;;;1.27;;
12129;SDS011;6128;59.340;18.040;2023-05-07T05:25:48;1.30;;;1.20;;
12129;SDS011;6128;59.340;18.040;2023-05-07T05:28:15;4.00;;;1.40;;
12129;SDS011;6128;59.340;18.040;2023-05-07T05:30:43;1.97;;;1.30;;
12129;SDS011;6128;59.340;18.040;2023-05-07T05:33:10;1.20;;;1.20;;
12129;SDS011;6128;59.340;18.040;2023-05-07T05:35:37;1.30;;;1.20;;
12129;SDS011;6128;59.340;18.040;2023-05-07T05:38:04;2.30;;;1.53;;
12129;SDS011;6128;59.340;18.040;2023-05-07T05:40:31;1.27;;;1.17;;
12129;SDS011;6128;59.340;18.040;2023-05-07T05:42:59;1.50;;;1.40;;
12129;SDS011;6128;59.340;18.040;2023-05-07T05:45:27;1.57;;;1.40;;
12129;SDS011;6128;59.340;18.040;2023-05-07T05:47:55;1.67;;;1.50;;
12129;SDS011;6128;59.340;18.040;2023-05-07T05:50:23;1.33;;;1.20;;
12129;SDS011;6128;59.340;18.040;2023-05-07T05:52:50;1.77;;;1.20;;
12129;SDS011;6128;59.340;18.040;2023-05-07T05:55:17;2.27;;;1.30;;
12129;SDS011;6128;59.340;18.040;2023-05-07T05:57:44;1.60;;;1.50;;
12129;SDS011;6128;59.340;18.040;2023-05-07T06:00:13;1.40;;;1.30;;
12129;SDS011;6128;59.340;18.040;2023-05-07T06:02:41;1.40;;;1.30;;
12129;SDS011;6128;59.340;18.040;2023-05-07T06:05:08;1.03;;;1.03;;
12129;SDS011;6128;59.340;18.040;2023-05-07T06:07:35;2.03;;;1.00;;
12129;SDS011;6128;59.340;18.040;2023-05-07T06:10:03;1.33;;;1.20;;
12129;SDS011;6128;59.340;18.040;2023-05-07T06:12:30;1.30;;;0.90;;
12129;SDS011;6128;59.340;18.040;2023-05-07T06:14:58;2.40;;;0.97;;
12129;SDS011;6128;59.340;18.040;2023-05-07T06:17:26;2.23;;;0.97;;
12129;SDS011;6128;59.340;18.040;2023-05-07T06:19:53;0.80;;;0.80;;
12129;SDS011;6128;59.340;18.040;2023-05-07T06:22:20;0.97;;;0.70;;
12129;SDS011;6128;59.340;18.040;2023-05-07T06:24:47;0.97;;;0.70;;
12129;SDS011;6128;59.340;18.040;2023-05-07T06:27:15;1.30;;;0.80;;
12129;SDS011;6128;59.340;18.040;2023-05-07T06:29:44;1.17;;;0.70;;
12129;SDS011;6128;59.340;18.040;2023-05-07T06:32:11;1.03;;;0.73;;
12129;SDS011;6128;59.340;18.040;2023-05-07T06:34:40;2.33;;;0.60;;
12129;SDS011;6128;59.340;18.040;2023-05-07T06:37:12;2.10;;;0.70;;
12129;SDS011;6128;59.340;18.040;2023-05-07T06:39:42;1.70;;;0.70;;
12129;SDS011;6128;59.340;18.040;2023-05-07T06:42:10;0.97;;;0.57;;
12129;SDS011;6128;59.340;18.040;2023-05-07T06:44:38;1.83;;;0.70;;
12129;SDS011;6128;59.340;18.040;2023-05-07T06:47:05;1.57;;;0.60;;
12129;SDS011;6128;59.340;18.040;2023-05-07T06:49:34;0.70;;;0.60;;
12129;SDS011;6128;59.340;18.040;2023-05-07T06:52:02;1.07;;;0.60;;
12129;SDS011;6128;59.340;18.040;2023-05-07T06:54:32;0.50;;;0.40;;
12129;SDS011;6128;59.340;18.040;2023-05-07T06:56:59;1.20;;;0.55;;
12129;SDS011;6128;59.340;18.040;2023-05-07T06:59:28;3.20;;;0.40;;
12129;SDS011;6128;59.340;18.040;2023-05-07T07:01:55;0.82;;;0.30;;
12129;SDS011;6128;59.340;18.040;2023-05-07T07:04:22;0.68;;;0.50;;
12129;SDS011;6128;59.340;18.040;2023-05-07T07:06:51;0.38;;;0.38;;
12129;SDS011;6128;59.340;18.040;2023-05-07T07:09:24;0.50;;;0.45;;
12129;SDS011;6128;59.340;18.040;2023-05-07T07:11:52;1.20;;;0.35;;
12129;SDS011;6128;59.340;18.040;2023-05-07T07:14:20;0.55;;;0.50;;
12129;SDS011;6128;59.340;18.040;2023-05-07T07:16:47;1.65;;;0.63;;
12129;SDS011;6128;59.340;18.040;2023-05-07T07:19:14;0.50;;;0.50;;
12129;SDS011;6128;59.340;18.040;2023-05-07T07:21:41;0.73;;;0.65;;
12129;SDS011;6128;59.340;18.040;2023-05-07T07:24:09;1.60;;;0.40;;
12129;SDS011;6128;59.340;18.040;2023-05-07T07:26:38;0.80;;;0.43;;
12129;SDS011;6128;59.340;18.040;2023-05-07T07:29:07;1.73;;;0.60;;
12129;SDS011;6128;59.340;18.040;2023-05-07T07:31:35;1.23;;;0.52;;
12129;SDS011;6128;59.340;18.040;2023-05-07T07:34:02;0.77;;;0.50;;
12129;SDS011;6128;59.340;18.040;2023-05-07T07:36:29;0.70;;;0.40;;
12129;SDS011;6128;59.340;18.040;2023-05-07T07:38:56;0.80;;;0.40;;
12129;SDS011;6128;59.340;18.040;2023-05-07T07:41:23;0.70;;;0.30;;
12129;SDS011;6128;59.340;18.040;2023-05-07T07:43:51;0.50;;;0.43;;
12129;SDS011;6128;59.340;18.040;2023-05-07T07:46:19;3.07;;;0.60;;
12129;SDS011;6128;59.340;18.040;2023-05-07T07:48:46;2.53;;;0.50;;
12129;SDS011;6128;59.340;18.040;2023-05-07T07:51:13;0.70;;;0.50;;
12129;SDS011;6128;59.340;18.040;2023-05-07T07:53:40;1.50;;;0.63;;
12129;SDS011;6128;59.340;18.040;2023-05-07T07:56:07;10.57;;;1.70;;
12129;SDS011;6128;59.340;18.040;2023-05-07T07:58:34;2.10;;;0.40;;
12129;SDS011;6128;59.340;18.040;2023-05-07T08:01:04;0.87;;;0.70;;
12129;SDS011;6128;59.340;18.040;2023-05-07T08:03:31;11.70;;;2.03;;
12129;SDS011;6128;59.340;18.040;2023-05-07T08:05:58;0.70;;;0.60;;
12129;SDS011;6128;59.340;18.040;2023-05-07T08:08:26;1.07;;;0.70;;
12129;SDS011;6128;59.340;18.040;2023-05-07T08:10:53;1.13;;;0.63;;
12129;SDS011;6128;59.340;18.040;2023-05-07T08:13:20;0.50;;;0.40;;
12129;SDS011;6128;59.340;18.040;2023-05-07T08:15:47;0.73;;;0.50;;
12129;SDS011;6128;59.340;18.040;2023-05-07T08:18:15;0.60;;;0.50;;
12129;SDS011;6128;59.340;18.040;2023-05-07T08:20:43;0.50;;;0.47;;
12129;SDS011;6128;59.340;18.040;2023-05-07T08:23:10;1.43;;;0.60;;
12129;SDS011;6128;59.340;18.040;2023-05-07T08:25:37;0.90;;;0.50;;
12129;SDS011;6128;59.340;18.040;2023-05-07T08:28:05;1.70;;;0.60;;
12129;SDS011;6128;59.340;18.040;2023-05-07T08:30:32;1.23;;;0.50;;
12129;SDS011;6128;59.340;18.040;2023-05-07T08:32:59;1.13;;;0.40;;
12129;SDS011;6128;59.340;18.040;2023-05-07T08:35:28;2.00;;;0.60;;
12129;SDS011;6128;59.340;18.040;2023-05-07T08:37:55;1.37;;;0.60;;
12129;SDS011;6128;59.340;18.040;2023-05-07T08:40:23;1.23;;;0.70;;
12129;SDS011;6128;59.340;18.040;2023-05-07T08:42:52;1.33;;;0.80;;
12129;SDS011;6128;59.340;18.040;2023-05-07T08:45:20;0.60;;;0.57;;
12129;SDS011;6128;59.340;18.040;2023-05-07T08:47:47;1.90;;;0.70;;
12129;SDS011;6128;59.340;18.040;2023-05-07T08:50:19;1.80;;;0.50;;
12129;SDS011;6128;59.340;18.040;2023-05-07T08:52:48;1.67;;;0.70;;
12129;SDS011;6128;59.340;18.040;2023-05-07T08:55:15;0.70;;;0.50;;
12129;SDS011;6128;59.340;18.040;2023-05-07T08:57:43;1.00;;;0.70;;
12129;SDS011;6128;59.340;18.040;2023-05-07T09:00:11;2.40;;;0.37;;
12129;SDS011;6128;59.340;18.040;2023-05-07T09:02:39;2.63;;;0.70;;
12129;SDS011;6128;59.340;18.040;2023-05-07T09:05:06;0.83;;;0.40;;
12129;SDS011;6128;59.340;18.040;2023-05-07T09:07:34;2.15;;;0.65;;
12129;SDS011;6128;59.340;18.040;2023-05-07T09:10:03;1.10;;;0.43;;
12129;SDS011;6128;59.340;18.040;2023-05-07T09:12:37;2.88;;;0.80;;
12129;SDS011;6128;59.340;18.040;2023-05-07T09:15:04;1.17;;;0.63;;
12129;SDS011;6128;59.340;18.040;2023-05-07T09:17:33;2.42;;;0.85;;
12129;SDS011;6128;59.340;18.040;2023-05-07T09:20:01;0.75;;;0.40;;
12129;SDS011;6128;59.340;18.040;2023-05-07T09:22:31;3.35;;;0.60;;
12129;SDS011;6128;59.340;18.040;2023-05-07T09:24:58;1.35;;;0.50;;
12129;SDS011;6128;59.340;18.040;2023-05-07T09:27:27;1.20;;;0.60;;
12129;SDS011;6128;59.340;18.040;2023-05-07T09:29:54;1.13;;;0.50;;
12129;SDS011;6128;59.340;18.040;2023-05-07T09:32:21;0.97;;;0.70;;
12129;SDS011;6128;59.340;18.040;2023-05-07T09:34:48;3.37;;;0.90;;
12129;SDS011;6128;59.340;18.040;2023-05-07T09:37:15;0.70;;;0.60;;
12129;SDS011;6128;59.340;18.040;2023-05-07T09:39:43;1.03;;;0.70;;
12129;SDS011;6128;59.340;18.040;2023-05-07T09:42:11;1.13;;;0.73;;
12129;SDS011;6128;59.340;18.040;2023-05-07T09:44:41;0.70;;;0.60;;
12129;SDS011;6128;59.340;18.040;2023-05-07T09:47:10;1.93;;;0.67;;
12129;SDS011;6128;59.340;18.040;2023-05-07T09:49:43;1.37;;;0.80;;
12129;SDS011;6128;59.340;18.040;2023-05-07T09:52:14;1.70;;;0.80;;
12129;SDS011;6128;59.340;18.040;2023-05-07T09:54:42;0.73;;;0.60;;
12129;SDS011;6128;59.340;18.040;2023-05-07T09:57:11;1.80;;;0.90;;
12129;SDS011;6128;59.340;18.040;2023-05-07T09:59:41;1.97;;;0.70;;
12129;SDS011;6128;59.340;18.040;2023-05-07T10:02:09;2.30;;;0.80;;
12129;SDS011;6128;59.340;18.040;2023-05-07T10:04:37;7.50;;;1.40;;
12129;SDS011;6128;59.340;18.040;2023-05-07T10:07:05;0.90;;;0.60;;
12129;SDS011;6128;59.340;18.040;2023-05-07T10:09:35;3.13;;;0.60;;
12129;SDS011;6128;59.340;18.040;2023-05-07T10:12:07;2.13;;;0.80;;
12129;SDS011;6128;59.340;18.040;2023-05-07T10:14:35;1.33;;;0.60;;
12129;SDS011;6128;59.340;18.040;2023-05-07T10:17:04;1.00;;;0.80;;
12129;SDS011;6128;59.340;18.040;2023-05-07T10:19:33;1.07;;;0.70;;
12129;SDS011;6128;59.340;18.040;2023-05-07T10:22:03;1.60;;;0.87;;
12129;SDS011;6128;59.340;18.040;2023-05-07T10:24:32;1.87;;;0.60;;
12129;SDS011;6128;59.340;18.040;2023-05-07T10:27:02;1.03;;;0.70;;
12129;SDS011;6128;59.340;18.040;2023-05-07T10:29:37;2.73;;;1.33;;
12129;SDS011;6128;59.340;18.040;2023-05-07T10:32:18;1.83;;;0.87;;
12129;SDS011;6128;59.340;18.040;2023-05-07T10:34:56;3.57;;;0.80;;
12129;SDS011;6128;59.340;18.040;2023-05-07T10:37:26;1.33;;;0.87;;
12129;SDS011;6128;59.340;18.040;2023-05-07T10:39:54;1.33;;;0.50;;
12129;SDS011;6128;59.340;18.040;2023-05-07T10:42:22;1.37;;;0.60;;
12129;SDS011;6128;59.340;18.040;2023-05-07T10:44:50;1.23;;;0.67;;
12129;SDS011;6128;59.340;18.040;2023-05-07T10:47:19;4.83;;;0.80;;
12129;SDS011;6128;59.340;18.040;2023-05-07T10:58:53;1.47;;;0.90;;
12129;SDS011;6128;59.340;18.040;2023-05-07T11:04:21;2.43;;;0.90;;
12129;SDS011;6128;59.340;18.040;2023-05-07T11:09:59;1.97;;;0.73;;
12129;SDS011;6128;59.340;18.040;2023-05-07T11:12:47;1.00;;;0.80;;
12129;SDS011;6128;59.340;18.040;2023-05-07T11:15:14;3.87;;;0.90;;
12129;SDS011;6128;59.340;18.040;2023-05-07T11:17:59;1.27;;;0.70;;
12129;SDS011;6128;59.340;18.040;2023-05-07T11:26:25;1.83;;;0.87;;
12129;SDS011;6128;59.340;18.040;2023-05-07T11:28:53;1.77;;;0.80;;
12129;SDS011;6128;59.340;18.040;2023-05-07T11:31:22;1.03;;;0.70;;
12129;SDS011;6128;59.340;18.040;2023-05-07T11:33:51;1.33;;;0.70;;
12129;SDS011;6128;59.340;18.040;2023-05-07T11:36:21;2.93;;;0.83;;
12129;SDS011;6128;59.340;18.040;2023-05-07T11:38:50;2.40;;;0.60;;
12129;SDS011;6128;59.340;18.040;2023-05-07T11:41:17;1.87;;;0.50;;
12129;SDS011;6128;59.340;18.040;2023-05-07T11:43:56;0.93;;;0.70;;
12129;SDS011;6128;59.340;18.040;2023-05-07T11:46:24;5.33;;;0.83;;
12129;SDS011;6128;59.340;18.040;2023-05-07T11:48:51;1.33;;;0.77;;
12129;SDS011;6128;59.340;18.040;2023-05-07T11:51:20;11.73;;;2.23;;
12129;SDS011;6128;59.340;18.040;2023-05-07T11:53:49;3.93;;;0.90;;
12129;SDS011;6128;59.340;18.040;2023-05-07T11:56:17;1.33;;;0.60;;
12129;SDS011;6128;59.340;18.040;2023-05-07T11:58:46;1.00;;;0.80;;
12129;SDS011;6128;59.340;18.040;2023-05-07T12:01:14;5.30;;;1.37;;
12129;SDS011;6128;59.340;18.040;2023-05-07T12:03:42;2.03;;;0.80;;
12129;SDS011;6128;59.340;18.040;2023-05-07T12:06:11;1.20;;;0.63;;
12129;SDS011;6128;59.340;18.040;2023-05-07T12:08:40;2.10;;;0.93;;
12129;SDS011;6128;59.340;18.040;2023-05-07T12:11:08;1.67;;;0.70;;
12129;SDS011;6128;59.340;18.040;2023-05-07T12:13:38;1.83;;;1.33;;
12129;SDS011;6128;59.340;18.040;2023-05-07T12:16:06;3.50;;;1.00;;
12129;SDS011;6128;59.340;18.040;2023-05-07T12:18:34;2.23;;;0.97;;
12129;SDS011;6128;59.340;18.040;2023-05-07T12:21:02;3.67;;;1.70;;
12129;SDS011;6128;59.340;18.040;2023-05-07T12:23:31;2.17;;;0.80;;
12129;SDS011;6128;59.340;18.040;2023-05-07T12:26:00;1.10;;;0.70;;
12129;SDS011;6128;59.340;18.040;2023-05-07T12:28:27;2.00;;;0.90;;
12129;SDS011;6128;59.340;18.040;2023-05-07T12:30:55;1.80;;;1.00;;
12129;SDS011;6128;59.340;18.040;2023-05-07T12:33:24;2.40;;;1.00;;
12129;SDS011;6128;59.340;18.040;2023-05-07T12:35:53;2.20;;;1.10;;
12129;SDS011;6128;59.340;18.040;2023-05-07T12:38:22;1.70;;;0.80;;
12129;SDS011;6128;59.340;18.040;2023-05-07T12:40:50;3.33;;;1.00;;
12129;SDS011;6128;59.340;18.040;2023-05-07T12:43:24;1.10;;;0.70;;
12129;SDS011;6128;59.340;18.040;2023-05-07T12:45:53;1.87;;;1.00;;
12129;SDS011;6128;59.340;18.040;2023-05-07T12:48:21;1.47;;;0.73;;
12129;SDS011;6128;59.340;18.040;2023-05-07T12:50:52;1.37;;;0.80;;
12129;SDS011;6128;59.340;18.040;2023-05-07T12:53:20;2.60;;;0.70;;
12129;SDS011;6128;59.340;18.040;2023-05-07T12:55:48;0.93;;;0.60;;
12129;SDS011;6128;59.340;18.040;2023-05-07T12:58:16;1.93;;;0.60;;
12129;SDS011;6128;59.340;18.040;2023-05-07T13:00:47;4.40;;;1.60;;
12129;SDS011;6128;59.340;18.040;2023-05-07T13:03:20;1.47;;;0.60;;
12129;SDS011;6128;59.340;18.040;2023-05-07T13:05:49;1.80;;;0.77;;
12129;SDS011;6128;59.340;18.040;2023-05-07T13:08:23;2.83;;;0.80;;
12129;SDS011;6128;59.340;18.040;2023-05-07T13:10:55;2.00;;;0.73;;
12129;SDS011;6128;59.340;18.040;2023-05-07T13:13:23;1.60;;;0.80;;
12129;SDS011;6128;59.340;18.040;2023-05-07T13:15:52;1.70;;;0.60;;
12129;SDS011;6128;59.340;18.040;2023-05-07T13:18:19;1.80;;;0.70;;
12129;SDS011;6128;59.340;18.040;2023-05-07T13:20:46;1.93;;;0.80;;
12129;SDS011;6128;59.340;18.040;2023-05-07T13:23:13;1.37;;;0.73;;
12129;SDS011;6128;59.340;18.040;2023-05-07T13:25:40;0.87;;;0.40;;
12129;SDS011;6128;59.340;18.040;2023-05-07T13:28:07;1.50;;;0.90;;
12129;SDS011;6128;59.340;18.040;2023-05-07T13:30:34;3.70;;;2.30;;
12129;SDS011;6128;59.340;18.040;2023-05-07T13:33:03;1.33;;;0.60;;
12129;SDS011;6128;59.340;18.040;2023-05-07T13:35:30;3.27;;;1.00;;
12129;SDS011;6128;59.340;18.040;2023-05-07T13:37:57;1.13;;;0.67;;
12129;SDS011;6128;59.340;18.040;2023-05-07T13:40:24;3.37;;;0.90;;
12129;SDS011;6128;59.340;18.040;2023-05-07T13:42:51;1.70;;;1.00;;
12129;SDS011;6128;59.340;18.040;2023-05-07T13:45:18;2.33;;;0.70;;
12129;SDS011;6128;59.340;18.040;2023-05-07T13:47:45;1.50;;;0.80;;
12129;SDS011;6128;59.340;18.040;2023-05-07T13:50:15;0.70;;;0.50;;
12129;SDS011;6128;59.340;18.040;2023-05-07T13:52:43;3.40;;;0.70;;
12129;SDS011;6128;59.340;18.040;2023-05-07T13:55:15;1.90;;;0.80;;
12129;SDS011;6128;59.340;18.040;2023-05-07T13:57:43;2.00;;;0.70;;
12129;SDS011;6128;59.340;18.040;2023-05-07T14:00:13;2.13;;;0.50;;
12129;SDS011;6128;59.340;18.040;2023-05-07T14:02:42;2.67;;;0.80;;
12129;SDS011;6128;59.340;18.040;2023-05-07T14:05:09;1.23;;;0.63;;
12129;SDS011;6128;59.340;18.040;2023-05-07T14:07:39;2.93;;;0.90;;
12129;SDS011;6128;59.340;18.040;2023-05-07T14:10:07;1.13;;;0.60;;
12129;SDS011;6128;59.340;18.040;2023-05-07T14:12:36;1.77;;;0.70;;
12129;SDS011;6128;59.340;18.040;2023-05-07T14:15:03;1.00;;;0.57;;
12129;SDS011;6128;59.340;18.040;2023-05-07T14:17:31;3.50;;;0.70;;
12129;SDS011;6128;59.340;18.040;2023-05-07T14:19:58;4.03;;;1.00;;
12129;SDS011;6128;59.340;18.040;2023-05-07T14:22:25;1.10;;;0.60;;
12129;SDS011;6128;59.340;18.040;2023-05-07T14:24:53;1.23;;;0.70;;
12129;SDS011;6128;59.340;18.040;2023-05-07T14:27:20;3.33;;;0.77;;
12129;SDS011;6128;59.340;18.040;2023-05-07T14:29:47;1.63;;;0.70;;
12129;SDS011;6128;59.340;18.040;2023-05-07T14:32:16;2.53;;;0.70;;
12129;SDS011;6128;59.340;18.040;2023-05-07T14:34:44;2.20;;;0.53;;
12129;SDS011;6128;59.340;18.040;2023-05-07T14:37:11;3.73;;;1.10;;
12129;SDS011;6128;59.340;18.040;2023-05-07T14:39:39;1.90;;;0.90;;
12129;SDS011;6128;59.340;18.040;2023-05-07T14:42:08;0.73;;;0.53;;
12129;SDS011;6128;59.340;18.040;2023-05-07T14:44:36;2.33;;;0.70;;
12129;SDS011;6128;59.340;18.040;2023-05-07T14:47:05;3.93;;;0.90;;
12129;SDS011;6128;59.340;18.040;2023-05-07T14:49:32;6.67;;;0.80;;
12129;SDS011;6128;59.340;18.040;2023-05-07T14:52:00;2.87;;;0.80;;
12129;SDS011;6128;59.340;18.040;2023-05-07T14:54:27;2.90;;;1.10;;
12129;SDS011;6128;59.340;18.040;2023-05-07T14:56:54;0.70;;;0.70;;
12129;SDS011;6128;59.340;18.040;2023-05-07T14:59:23;1.20;;;0.83;;
12129;SDS011;6128;59.340;18.040;2023-05-07T15:01:50;1.80;;;0.80;;
12129;SDS011;6128;59.340;18.040;2023-05-07T15:04:17;1.47;;;0.80;;
12129;SDS011;6128;59.340;18.040;2023-05-07T15:06:45;1.53;;;1.23;;
12129;SDS011;6128;59.340;18.040;2023-05-07T15:09:12;1.23;;;0.40;;
12129;SDS011;6128;59.340;18.040;2023-05-07T15:11:40;0.67;;;0.60;;
12129;SDS011;6128;59.340;18.040;2023-05-07T15:14:07;2.13;;;0.73;;